Time;durP1;ratioP1;P1;durP2;ratioP2;P2;SDS_P1;SDS_P2;PMS_P1;PMS_P2;Temp;Humidity;BMP_temperature;BMP_pressure;BME280_temperature;BME280_humidity;BME280_pressure;Samples;Min_cycle;Max_cycle;Signal;HPM_P1;HPM_P2
2022/03/07 00:01:45;;;;;;;;;;;;;;;;;;4453599;32;20111;-82
2022/03/07 00:04:14;;;;;;;13.62;8.80;;;;;;;;;;4453519;32;19951;-82
2022/03/07 00:06:39;;;;;;;10.52;7.35;;;;;;;;;;4467270;32;20047;-81
2022/03/07 00:09:04;;;;;;;;;;;;;;;;;;4467493;32;20017;-84
2022/03/07 00:11:29;;;;;;;13.85;7.15;;;;;;;;;;4453748;32;19966;-82
2022/03/07 00:13:55;;;;;;;;;;;;;;;;;;4453214;32;20530;-83
2022/03/07 00:16:20;;;;;;;15.23;7.10;;;;;;;;;;4454527;32;20365;-81
2022/03/07 00:18:45;;;;;;;;;;;;;;;;;;4468159;32;20025;-82
2022/03/07 00:21:10;;;;;;;13.70;7.20;;;;;;;;;;4453373;32;19936;-82
2022/03/07 00:23:35;;;;;;;;;;;;;;;;;;4467851;32;20105;-81
2022/03/07 00:26:00;;;;;;;15.23;7.80;;;;;;;;;;4467044;32;19985;-82
2022/03/07 00:28:25;;;;;;;;;;;;;;;;;;4467592;32;20467;-82
2022/03/07 00:30:51;;;;;;;11.75;7.28;;;;;;;;;;4453323;32;19984;-81
2022/03/07 00:33:16;;;;;;;;;;;;;;;;;;4467633;32;20028;-83
2022/03/07 00:35:41;;;;;;;11.68;7.55;;;;;;;;;;4452810;32;19932;-83
2022/03/07 00:38:06;;;;;;;;;;;;;;;;;;4467677;32;20022;-84
2022/03/07 00:40:31;;;;;;;12.82;7.22;;;;;;;;;;4452619;32;20298;-81
2022/03/07 00:42:57;;;;;;;;;;;;;;;;;;4467247;32;20178;-81
2022/03/07 00:45:22;;;;;;;10.70;6.97;;;;;;;;;;4466957;32;19936;-81
2022/03/07 00:47:47;;;;;;;;;;;;;;;;;;4468020;32;20150;-81
2022/03/07 00:50:12;;;;;;;12.50;7.53;;;;;;;;;;4452599;32;20346;-81
2022/03/07 00:52:37;;;;;;;;;;;;;;;;;;4468456;32;20075;-81
2022/03/07 00:55:02;;;;;;;12.00;8.15;;;;;;;;;;4467159;32;19950;-81
2022/03/07 00:57:28;;;;;;;;;;;;;;;;;;4453666;32;20374;-82
2022/03/07 00:59:53;;;;;;;12.10;7.15;;;;;;;;;;4453308;32;20265;-81
2022/03/07 01:02:19;;;;;;;;;;;;;;;;;;4467204;32;20074;-83
2022/03/07 01:04:44;;;;;;;11.07;8.02;;;;;;;;;;4467328;32;19970;-82
2022/03/07 01:07:09;;;;;;;;;;;;;;;;;;4466949;32;20070;-81
2022/03/07 01:09:34;;;;;;;13.95;8.27;;;;;;;;;;4467576;32;19974;-81
2022/03/07 01:12:00;;;;;;;;;;;;;;;;;;4469848;32;20444;-80
2022/03/07 01:14:25;;;;;;;14.60;8.02;;;;;;;;;;4470016;32;19987;-80
2022/03/07 01:16:50;;;;;;;;;;;;;;;;;;4472588;32;20033;-80
2022/03/07 01:19:15;;;;;;;17.37;8.43;;;;;;;;;;4464342;32;19924;-84
2022/03/07 01:21:40;;;;;;;;;;;;;;;;;;4479374;32;20112;-82
2022/03/07 01:24:08;;;;;;;15.90;7.55;;;;;;;;;;4479525;32;20016;-80
2022/03/07 01:26:34;;;;;;;15.05;7.97;;;;;;;;;;4472637;32;20108;-81
2022/03/07 01:28:59;;;;;;;;;;;;;;;;;;4474347;32;20158;-82
2022/03/07 01:31:24;;;;;;;14.90;7.85;;;;;;;;;;4459654;32;19936;-80
2022/03/07 01:33:49;;;;;;;;;;;;;;;;;;4473142;32;20456;-80
2022/03/07 01:36:15;;;;;;;12.02;7.57;;;;;;;;;;4458391;32;20373;-80
2022/03/07 01:38:40;;;;;;;;;;;;;;;;;;4474480;32;20036;-80
2022/03/07 01:41:05;;;;;;;12.13;7.40;;;;;;;;;;4460278;32;19932;-81
2022/03/07 01:43:30;;;;;;;;;;;;;;;;;;4459406;32;20055;-80
2022/03/07 01:45:55;;;;;;;16.12;7.75;;;;;;;;;;4472800;32;19947;-80
2022/03/07 01:48:21;;;;;;;;;;;;;;;;;;4473968;32;20044;-80
2022/03/07 01:50:46;;;;;;;10.65;6.32;;;;;;;;;;4473525;32;19972;-80
2022/03/07 01:53:11;;;;;;;;;;;;;;;;;;4459583;32;20409;-80
2022/03/07 01:55:36;;;;;;;13.27;7.97;;;;;;;;;;4473825;32;19936;-81
2022/03/07 01:58:01;;;;;;;;;;;;;;;;;;4473720;32;20050;-81
2022/03/07 02:00:27;;;;;;;10.23;7.80;;;;;;;;;;4472690;32;19943;-80
2022/03/07 02:02:53;;;;;;;;;;;;;;;;;;4473806;32;20018;-82
2022/03/07 02:05:18;;;;;;;13.07;7.70;;;;;;;;;;4473744;32;20409;-82
2022/03/07 02:07:44;;;;;;;;;;;;;;;;;;4459584;32;20021;-80
2022/03/07 02:10:10;;;;;;;14.65;7.87;;;;;;;;;;4474262;32;20344;-81
2022/03/07 02:12:36;;;;;;;14.55;8.25;;;;;;;;;;4458887;32;20066;-80
2022/03/07 02:15:01;;;;;;;;;;;;;;;;;;4472393;32;20049;-81
2022/03/07 02:17:26;;;;;;;11.02;7.50;;;;;;;;;;4472024;32;19936;-81
2022/03/07 02:19:51;;;;;;;;;;;;;;;;;;4472507;32;20040;-80
2022/03/07 02:22:16;;;;;;;14.15;7.50;;;;;;;;;;4475471;32;19968;-81
2022/03/07 02:24:41;;;;;;;;;;;;;;;;;;4472881;32;20112;-80
2022/03/07 02:27:08;;;;;;;13.93;7.45;;;;;;;;;;4472376;32;19932;-81
2022/03/07 02:29:33;;;;;;;11.65;7.35;;;;;;;;;;4470460;32;20200;-83
2022/03/07 02:31:59;;;;;;;;;;;;;;;;;;4470391;32;20343;-82
2022/03/07 02:34:24;;;;;;;12.45;7.62;;;;;;;;;;4472289;32;19955;-82
2022/03/07 02:36:49;;;;;;;;;;;;;;;;;;4473859;32;20375;-81
2022/03/07 02:39:15;;;;;;;10.52;7.47;;;;;;;;;;4476473;32;20308;-80
2022/03/07 02:41:40;;;;;;;;;;;;;;;;;;4460861;32;20048;-82
2022/03/07 02:44:06;;;;;;;10.98;7.10;;;;;;;;;;4473751;32;19947;-80
2022/03/07 02:46:31;;;;;;;;;;;;;;;;;;4464881;32;20161;-82
2022/03/07 02:48:56;;;;;;;10.13;7.15;;;;;;;;;;4478391;32;19950;-80
2022/03/07 02:51:22;;;;;;;;;;;;;;;;;;4465266;32;20047;-80
2022/03/07 02:53:47;;;;;;;11.98;7.53;;;;;;;;;;4476747;32;19936;-81
2022/03/07 02:56:12;;;;;;;;;;;;;;;;;;4476470;32;20108;-81
2022/03/07 02:58:37;;;;;;;11.55;7.32;;;;;;;;;;4476453;32;19932;-81
2022/03/07 03:01:02;;;;;;;;;;;;;;;;;;4472665;32;20095;-81
2022/03/07 03:03:28;;;;;;;12.43;7.32;;;;;;;;;;4461326;32;19946;-82
2022/03/07 03:05:54;;;;;;;;;;;;;;;;;;4461666;32;20101;-81
2022/03/07 03:08:20;;;;;;;12.82;7.07;;;;;;;;;;4462898;32;19970;-81
2022/03/07 03:10:45;;;;;;;11.65;6.95;;;;;;;;;;4463463;32;20021;-80
2022/03/07 03:13:10;;;;;;;;;;;;;;;;;;4461688;32;20049;-80
2022/03/07 03:15:36;;;;;;;13.00;7.18;;;;;;;;;;4461839;32;19956;-81
2022/03/07 03:18:01;;;;;;;;;;;;;;;;;;4462279;32;20013;-80
2022/03/07 03:20:26;;;;;;;59.92;29.15;;;;;;;;;;4461070;32;20272;-80
2022/03/07 03:22:51;;;;;;;;;;;;;;;;;;4461494;32;20098;-80
2022/03/07 03:25:16;;;;;;;39.33;21.20;;;;;;;;;;4463157;32;19968;-81
2022/03/07 03:27:41;;;;;;;;;;;;;;;;;;4461566;32;20017;-81
2022/03/07 03:30:08;;;;;;;25.52;13.75;;;;;;;;;;4462032;32;19932;-82
2022/03/07 03:32:33;;;;;;;16.98;11.73;;;;;;;;;;4460843;32;20148;-80
2022/03/07 03:34:58;;;;;;;;;;;;;;;;;;4462562;32;20037;-80
2022/03/07 03:37:26;;;;;;;34.25;16.73;;;;;;;;;;4460468;32;19976;-80
2022/03/07 03:39:52;;;;;;;140.35;58.70;;;;;;;;;;4461060;32;20025;-81
2022/03/07 03:42:17;;;;;;;;;;;;;;;;;;4462129;32;20043;-79
2022/03/07 03:44:42;;;;;;;23.58;13.35;;;;;;;;;;4461919;32;19949;-81
2022/03/07 03:47:07;;;;;;;;;;;;;;;;;;4462609;32;20642;-82
2022/03/07 03:49:33;;;;;;;18.70;9.48;;;;;;;;;;4461629;32;20325;-81
2022/03/07 03:51:58;;;;;;;;;;;;;;;;;;4460370;32;20079;-82
2022/03/07 03:54:23;;;;;;;;;;;;;;;;;;4462951;32;19944;-82
2022/03/07 03:56:48;;;;;;;;;;;;;;;;;;4463846;32;19970;-78
2022/03/07 03:59:13;;;;;;;;;;;;;;;;;;4477602;32;19988;-81
2022/03/07 04:01:38;;;;;;;;;;;;;;;;;;4475951;32;19975;-80
2022/03/07 04:04:03;;;;;;;;;;;;;;;;;;4473568;32;19951;-82
2022/03/07 04:06:28;;;;;;;;;;;;;;;;;;4454458;32;19968;-81
2022/03/07 04:08:53;;;;;;;;;;;;;;;;;;4467695;32;19946;-81
2022/03/07 04:11:20;;;;;;;;;;;;;;;;;;4453471;32;19982;-81
2022/03/07 04:13:45;;;;;;;;;;;;;;;;;;4467064;32;19988;-81
2022/03/07 04:16:11;;;;;;;;;;;;;;;;;;4467401;32;19932;-79
2022/03/07 04:18:36;;;;;;;;;;;;;;;;;;4452736;32;20348;-82
2022/03/07 04:21:01;;;;;;;;;;;;;;;;;;4452724;32;20276;-80
2022/03/07 04:23:26;;;;;;;;;;;;;;;;;;4453480;32;19935;-81
2022/03/07 04:25:51;;;;;;;;;;;;;;;;;;4452408;32;19950;-82
2022/03/07 04:28:16;;;;;;;;;;;;;;;;;;4467228;32;19945;-81
2022/03/07 04:30:42;;;;;;;;;;;;;;;;;;4452467;32;20242;-81
2022/03/07 04:33:08;;;;;;;;;;;;;;;;;;4466311;32;19936;-81
2022/03/07 04:35:33;;;;;;;;;;;;;;;;;;4466647;32;19997;-82
2022/03/07 04:38:00;;;;;;;;;;;;;;;;;;4466720;32;19968;-81
2022/03/07 04:40:25;;;;;;;;;;;;;;;;;;4466442;32;19946;-81
2022/03/07 04:42:52;;;;;;;;;;;;;;;;;;4466740;32;19939;-81
2022/03/07 04:45:18;;;;;;;;;;;;;;;;;;4454930;32;19928;-81
2022/03/07 04:47:43;;;;;;;;;;;;;;;;;;4469790;32;20341;-80
2022/03/07 04:50:08;;;;;;;;;;;;;;;;;;4469798;32;19973;-81
2022/03/07 04:52:34;;;;;;;;;;;;;;;;;;4470998;32;19936;-80
2022/03/07 04:54:59;;;;;;;;;;;;;;;;;;4470060;32;20343;-81
2022/03/07 04:57:24;;;;;;;;;;;;;;;;;;4470202;32;19943;-79
2022/03/07 04:59:49;;;;;;;;;;;;;;;;;;4455200;32;19936;-79
2022/03/07 05:02:14;;;;;;;;;;;;;;;;;;4469875;32;20001;-79
2022/03/07 05:04:39;;;;;;;;;;;;;;;;;;4455469;32;19936;-80
2022/03/07 05:07:05;;;;;;;;;;;;;;;;;;4455096;32;20329;-80
2022/03/07 05:09:30;;;;;;;;;;;;;;;;;;4455114;32;19973;-80
2022/03/07 05:11:55;;;;;;;;;;;;;;;;;;4454908;32;19956;-77
2022/03/07 05:14:20;;;;;;;;;;;;;;;;;;4469602;32;19959;-79
2022/03/07 05:16:45;;;;;;;;;;;;;;;;;;4469342;32;19932;-80
2022/03/07 05:19:10;;;;;;;;;;;;;;;;;;4470386;32;19943;-80
2022/03/07 05:21:35;;;;;;;;;;;;;;;;;;4454917;32;19936;-79
2022/03/07 05:24:00;;;;;;;;;;;;;;;;;;4468945;32;19947;-80
2022/03/07 05:26:25;;;;;;;;;;;;;;;;;;4469228;32;19936;-80
2022/03/07 05:28:50;;;;;;;;;;;;;;;;;;4470369;32;19937;-78
2022/03/07 05:31:15;;;;;;;;;;;;;;;;;;4469540;32;19961;-80
2022/03/07 05:33:41;;;;;;;;;;;;;;;;;;4468584;32;19945;-78
2022/03/07 05:36:06;;;;;;;;;;;;;;;;;;4469307;32;19951;-78
2022/03/07 05:38:31;;;;;;;;;;;;;;;;;;4468856;32;19933;-80
2022/03/07 05:40:56;;;;;;;;;;;;;;;;;;4469523;32;20298;-79
2022/03/07 05:43:21;;;;;;;;;;;;;;;;;;4469610;32;19946;-80
2022/03/07 05:45:46;;;;;;;;;;;;;;;;;;4454543;32;19995;-80
2022/03/07 05:48:11;;;;;;;;;;;;;;;;;;4469493;32;19955;-82
2022/03/07 05:50:36;;;;;;;;;;;;;;;;;;4454717;32;19941;-80
2022/03/07 05:53:01;;;;;;;;;;;;;;;;;;4471446;32;19966;-79
2022/03/07 05:55:27;;;;;;;;;;;;;;;;;;4458763;32;19940;-80
2022/03/07 05:57:55;;;;;;;;;;;;;;;;;;4469733;32;19946;-80
2022/03/07 06:00:20;;;;;;;;;;;;;;;;;;4455892;32;20322;-79
2022/03/07 06:02:45;;;;;;;;;;;;;;;;;;4468917;32;19940;-81
2022/03/07 06:05:10;;;;;;;;;;;;;;;;;;4469138;32;20290;-80
2022/03/07 06:07:35;;;;;;;;;;;;;;;;;;4454209;32;19964;-78
2022/03/07 06:10:03;;;;;;;;;;;;;;;;;;4468560;32;19944;-81
2022/03/07 06:12:28;;;;;;;;;;;;;;;;;;4468586;32;20322;-82
2022/03/07 06:14:53;;;;;;;;;;;;;;;;;;4468581;32;19996;-79
2022/03/07 06:17:19;;;;;;;;;;;;;;;;;;4454140;32;20010;-81
2022/03/07 06:19:44;;;;;;;;;;;;;;;;;;4468462;32;19988;-78
2022/03/07 06:22:09;;;;;;;;;;;;;;;;;;4454069;32;19962;-80
2022/03/07 06:24:35;;;;;;;;;;;;;;;;;;4467982;32;19951;-79
2022/03/07 06:27:00;;;;;;;;;;;;;;;;;;4444094;32;19929;-78
2022/03/07 06:29:25;;;;;;;;;;;;;;;;;;4449379;32;19932;-81
2022/03/07 06:31:50;;;;;;;;;;;;;;;;;;4468029;32;19932;-78
2022/03/07 06:34:16;;;;;;;;;;;;;;;;;;4467921;32;20340;-79
2022/03/07 06:36:41;;;;;;;;;;;;;;;;;;4468133;32;20007;-78
2022/03/07 06:39:06;;;;;;;;;;;;;;;;;;4467838;32;20028;-79
2022/03/07 06:41:31;;;;;;;;;;;;;;;;;;4453332;32;19940;-76
2022/03/07 06:43:56;;;;;;;;;;;;;;;;;;4461378;32;19968;-78
2022/03/07 06:46:21;;;;;;;;;;;;;;;;;;4452330;32;19957;-80
2022/03/07 06:48:46;;;;;;;;;;;;;;;;;;4453491;32;19940;-80
2022/03/07 06:51:11;;;;;;;;;;;;;;;;;;4453275;32;19932;-80
2022/03/07 06:53:36;;;;;;;;;;;;;;;;;;4468174;32;19932;-80
2022/03/07 06:56:02;;;;;;;;;;;;;;;;;;4467378;32;19932;-82
2022/03/07 06:58:27;;;;;;;;;;;;;;;;;;4467268;32;19983;-79
2022/03/07 07:00:52;;;;;;;;;;;;;;;;;;4467834;32;19936;-80
2022/03/07 07:03:17;;;;;;;;;;;;;;;;;;4468132;32;19940;-83
2022/03/07 07:05:42;;;;;;;;;;;;;;;;;;4468037;32;19944;-81
2022/03/07 07:08:07;;;;;;;;;;;;;;;;;;4467174;32;20016;-79
2022/03/07 07:10:32;;;;;;;;;;;;;;;;;;4467429;32;19936;-81
2022/03/07 07:12:58;;;;;;;;;;;;;;;;;;4467703;32;20011;-81
2022/03/07 07:15:23;;;;;;;;;;;;;;;;;;4466975;32;19958;-80
2022/03/07 07:17:48;;;;;;;;;;;;;;;;;;4456319;32;20037;-80
2022/03/07 07:20:13;;;;;;;;;;;;;;;;;;4455993;32;20032;-81
2022/03/07 07:22:38;;;;;;;;;;;;;;;;;;4453584;32;19963;-80
2022/03/07 07:25:04;;;;;;;;;;;;;;;;;;4452952;32;19956;-82
2022/03/07 07:27:29;;;;;;;;;;;;;;;;;;4451747;32;19943;-80
2022/03/07 07:29:54;;;;;;;;;;;;;;;;;;4451045;32;19936;-82
2022/03/07 07:32:19;;;;;;;;;;;;;;;;;;4451972;32;19990;-83
2022/03/07 07:34:44;;;;;;;;;;;;;;;;;;4453817;32;19977;-80
2022/03/07 07:37:10;;;;;;;;;;;;;;;;;;4464322;32;19947;-80
2022/03/07 07:39:35;;;;;;;;;;;;;;;;;;4454717;32;20353;-79
2022/03/07 07:42:00;;;;;;;;;;;;;;;;;;4453928;32;19940;-82
2022/03/07 07:44:26;;;;;;;;;;;;;;;;;;4454257;32;19967;-79
2022/03/07 07:46:52;;;;;;;;;;;;;;;;;;4453617;32;19929;-80
2022/03/07 07:49:17;;;;;;;;;;;;;;;;;;4465985;32;19936;-80
2022/03/07 07:51:42;;;;;;;;;;;;;;;;;;4445688;32;19936;-81
2022/03/07 07:54:07;;;;;;;;;;;;;;;;;;4452465;32;19968;-83
2022/03/07 07:56:32;;;;;;;;;;;;;;;;;;4453500;32;19932;-81
2022/03/07 07:58:57;;;;;;;;;;;;;;;;;;4453120;32;20011;-82
2022/03/07 08:01:23;;;;;;;;;;;;;;;;;;4450182;32;19947;-81
2022/03/07 08:03:48;;;;;;;;;;;;;;;;;;4452354;32;19976;-83
2022/03/07 08:06:13;;;;;;;;;;;;;;;;;;4450848;32;19947;-81
2022/03/07 08:08:38;;;;;;;;;;;;;;;;;;4456670;32;19972;-82
2022/03/07 08:11:03;;;;;;;;;;;;;;;;;;4467205;32;19944;-82
2022/03/07 08:13:28;;;;;;;;;;;;;;;;;;4467428;32;19963;-81
2022/03/07 08:15:54;;;;;;;;;;;;;;;;;;4452979;32;19937;-83
2022/03/07 08:18:19;;;;;;;;;;;;;;;;;;4467341;32;19984;-82
2022/03/07 08:20:44;;;;;;;;;;;;;;;;;;4469956;32;19984;-80
2022/03/07 08:23:12;;;;;;;;;;;;;;;;;;4470782;32;19969;-82
2022/03/07 08:25:38;;;;;;;;;;;;;;;;;;4450076;32;19937;-83
2022/03/07 08:28:03;;;;;;;;;;;;;;;;;;4455986;32;19932;-82
2022/03/07 08:30:28;;;;;;;;;;;;;;;;;;4455070;32;19965;-80
2022/03/07 08:32:53;;;;;;;;;;;;;;;;;;4454489;32;19944;-85
2022/03/07 08:35:18;;;;;;;;;;;;;;;;;;4454041;32;19996;-81
2022/03/07 08:37:45;;;;;;;;;;;;;;;;;;4454811;32;19993;-84
2022/03/07 08:40:10;;;;;;;;;;;;;;;;;;4452933;32;19929;-83
2022/03/07 08:42:36;;;;;;;;;;;;;;;;;;4453870;32;20006;-83
2022/03/07 08:45:01;;;;;;;;;;;;;;;;;;4453677;32;19936;-80
2022/03/07 08:47:26;;;;;;;;;;;;;;;;;;4453281;32;19975;-82
2022/03/07 08:49:51;;;;;;;;;;;;;;;;;;4453502;32;19936;-81
2022/03/07 08:52:16;;;;;;;;;;;;;;;;;;4454972;32;19940;-84
2022/03/07 08:54:42;;;;;;;;;;;;;;;;;;4453919;32;20321;-84
2022/03/07 08:57:07;;;;;;;;;;;;;;;;;;4454871;32;19950;-82
2022/03/07 08:59:32;;;;;;;;;;;;;;;;;;4454923;32;19986;-81
2022/03/07 09:01:57;;;;;;;;;;;;;;;;;;4452844;32;19951;-82
2022/03/07 09:04:24;;;;;;;;;;;;;;;;;;4452805;32;20241;-83
2022/03/07 09:06:49;;;;;;;;;;;;;;;;;;4454220;32;19928;-81
2022/03/07 09:09:14;;;;;;;;;;;;;;;;;;4452940;32;19944;-84
2022/03/07 09:11:40;;;;;;;;;;;;;;;;;;4453021;32;19950;-80
2022/03/07 09:14:05;;;;;;;;;;;;;;;;;;4452668;32;19971;-83
2022/03/07 09:16:30;;;;;;;;;;;;;;;;;;4452491;32;19955;-84
2022/03/07 09:18:55;;;;;;;;;;;;;;;;;;4453904;32;19933;-83
2022/03/07 09:21:20;;;;;;;;;;;;;;;;;;4452931;32;19974;-84
2022/03/07 09:23:46;;;;;;;;;;;;;;;;;;4453337;32;20325;-84
2022/03/07 09:26:11;;;;;;;;;;;;;;;;;;4455289;32;19956;-85
2022/03/07 09:28:37;;;;;;;;;;;;;;;;;;4453702;32;19980;-85
2022/03/07 09:31:06;;;;;;;;;;;;;;;;;;4451892;32;20270;-84
2022/03/07 09:33:31;;;;;;;;;;;;;;;;;;4454915;32;19984;-82
2022/03/07 09:35:56;;;;;;;;;;;;;;;;;;4454992;32;19964;-81
2022/03/07 09:38:21;;;;;;;;;;;;;;;;;;4454829;32;20265;-83
2022/03/07 09:40:46;;;;;;;;;;;;;;;;;;4453447;32;19936;-84
2022/03/07 09:43:12;;;;;;;;;;;;;;;;;;4454654;32;19947;-84
2022/03/07 09:45:40;;;;;;;;;;;;;;;;;;4454698;32;19973;-84
2022/03/07 09:48:05;;;;;;;;;;;;;;;;;;4455976;32;19947;-84
2022/03/07 09:50:30;;;;;;;;;;;;;;;;;;4442634;32;19940;-85
2022/03/07 09:52:55;;;;;;;;;;;;;;;;;;4464487;32;19936;-84
2022/03/07 09:55:20;;;;;;;;;;;;;;;;;;4456074;32;19952;-84
2022/03/07 09:57:46;;;;;;;;;;;;;;;;;;4470733;32;19937;-85
2022/03/07 10:00:14;;;;;;;;;;;;;;;;;;4448453;32;19996;-83
2022/03/07 10:02:39;;;;;;;;;;;;;;;;;;4443865;32;19980;-84
2022/03/07 10:05:05;;;;;;;;;;;;;;;;;;4454627;32;20246;-84
2022/03/07 10:07:30;;;;;;;;;;;;;;;;;;4450970;32;19951;-84
2022/03/07 10:09:55;;;;;;;;;;;;;;;;;;4439417;32;19951;-84
2022/03/07 10:12:20;;;;;;;;;;;;;;;;;;4451846;32;19932;-82
2022/03/07 10:14:45;;;;;;;;;;;;;;;;;;4453255;32;19951;-83
2022/03/07 10:17:10;;;;;;;;;;;;;;;;;;4454217;32;19947;-83
2022/03/07 10:19:35;;;;;;;;;;;;;;;;;;4453904;32;19972;-85
2022/03/07 10:22:01;;;;;;;;;;;;;;;;;;4452206;32;20038;-82
2022/03/07 10:24:26;;;;;;;;;;;;;;;;;;4453117;32;19936;-82
2022/03/07 10:26:53;;;;;;;;;;;;;;;;;;4452802;32;19947;-85
2022/03/07 10:29:19;;;;;;;;;;;;;;;;;;4451173;32;19968;-84
2022/03/07 10:31:47;;;;;;;;;;;;;;;;;;4453305;32;20000;-83
2022/03/07 10:34:12;;;;;;;;;;;;;;;;;;4452702;32;19940;-84
2022/03/07 10:36:37;;;;;;;;;;;;;;;;;;4453501;32;20000;-81
2022/03/07 10:39:03;;;;;;;;;;;;;;;;;;4453225;32;19936;-85
2022/03/07 10:41:30;;;;;;;;;;;;;;;;;;4453359;32;19978;-85
2022/03/07 10:43:55;;;;;;;;;;;;;;;;;;4452291;32;19939;-84
2022/03/07 10:46:20;;;;;;;;;;;;;;;;;;4452562;32;19940;-84
2022/03/07 10:48:48;;;;;;;;;;;;;;;;;;4452351;32;20317;-84
2022/03/07 10:51:13;;;;;;;;;;;;;;;;;;4451788;32;19936;-83
2022/03/07 10:53:38;;;;;;;;;;;;;;;;;;4451720;32;20334;-83
2022/03/07 10:56:04;;;;;;;;;;;;;;;;;;4452093;32;19952;-84
2022/03/07 10:58:29;;;;;;;;;;;;;;;;;;4451628;32;19935;-83
2022/03/07 11:00:55;;;;;;;;;;;;;;;;;;4453462;32;20353;-82
2022/03/07 11:03:20;;;;;;;;;;;;;;;;;;4453131;32;20261;-83
2022/03/07 11:05:45;;;;;;;;;;;;;;;;;;4454011;32;19973;-83
2022/03/07 11:08:10;;;;;;;;;;;;;;;;;;4454196;32;20245;-83
2022/03/07 11:10:36;;;;;;;;;;;;;;;;;;4453125;32;20353;-82
2022/03/07 11:13:01;;;;;;;;;;;;;;;;;;4453606;32;19969;-83
2022/03/07 11:15:27;;;;;;;;;;;;;;;;;;4452104;32;19941;-84
2022/03/07 11:17:52;;;;;;;;;;;;;;;;;;4456083;32;19951;-84
2022/03/07 11:20:17;;;;;;;;;;;;;;;;;;4455101;32;19932;-82
2022/03/07 11:22:42;;;;;;;;;;;;;;;;;;4454773;32;19936;-83
2022/03/07 11:25:07;;;;;;;;;;;;;;;;;;4456292;32;19991;-82
2022/03/07 11:27:32;;;;;;;;;;;;;;;;;;4469943;32;19940;-83
2022/03/07 11:30:04;;;;;;;;;;;;;;;;;;4468294;32;19972;-83
2022/03/07 11:32:29;;;;;;;;;;;;;;;;;;4468337;32;20026;-83
2022/03/07 11:34:54;;;;;;;;;;;;;;;;;;4453835;32;20255;-85
2022/03/07 11:37:19;;;;;;;;;;;;;;;;;;4454157;32;19936;-84
2022/03/07 11:39:45;;;;;;;;;;;;;;;;;;4453711;32;19950;-80
2022/03/07 11:42:10;;;;;;;;;;;;;;;;;;4453650;32;19970;-81
2022/03/07 11:44:35;;;;;;;;;;;;;;;;;;4453977;32;19964;-84
2022/03/07 11:47:05;;;;;;;;;;;;;;;;;;4467919;32;19976;-83
2022/03/07 11:49:31;;;;;;;;;;;;;;;;;;4468133;32;19943;-84
2022/03/07 11:51:59;;;;;;;;;;;;;;;;;;4453733;32;20250;-85
2022/03/07 11:54:24;;;;;;;;;;;;;;;;;;4453070;32;19969;-84
2022/03/07 11:56:52;;;;;;;;;;;;;;;;;;4468654;32;19972;-84
2022/03/07 11:59:25;;;;;;;;;;;;;;;;;;4467918;32;19936;-84
2022/03/07 12:01:50;;;;;;;;;;;;;;;;;;4453939;32;20283;-81
2022/03/07 12:04:16;;;;;;;;;;;;;;;;;;4453546;32;19960;-86
2022/03/07 12:06:41;;;;;;;;;;;;;;;;;;4453202;32;19932;-81
2022/03/07 12:09:07;;;;;;;;;;;;;;;;;;4453570;32;19935;-84
2022/03/07 12:11:32;;;;;;;;;;;;;;;;;;4453076;32;20322;-85
2022/03/07 12:14:02;;;;;;;;;;;;;;;;;;4466895;32;20239;-84
2022/03/07 12:16:28;;;;;;;;;;;;;;;;;;4453085;32;20014;-83
2022/03/07 12:18:53;;;;;;;;;;;;;;;;;;4453220;32;19933;-84
2022/03/07 12:21:21;;;;;;;;;;;;;;;;;;4467753;32;19990;-84
2022/03/07 12:23:46;;;;;;;;;;;;;;;;;;4453020;32;19932;-84
2022/03/07 12:26:11;;;;;;;;;;;;;;;;;;4467016;32;19951;-84
2022/03/07 12:28:37;;;;;;;;;;;;;;;;;;4452614;32;19932;-84
2022/03/07 12:31:05;;;;;;;;;;;;;;;;;;4453324;32;19931;-85
2022/03/07 12:33:39;;;;;;;;;;;;;;;;;;4450885;32;19943;-85
2022/03/07 12:36:14;;;;;;;;;;;;;;;;;;4452295;32;19970;-83
2022/03/07 12:38:39;;;;;;;;;;;;;;;;;;4438736;32;19964;-86
2022/03/07 12:41:04;;;;;;;;;;;;;;;;;;4438547;32;20334;-83
2022/03/07 12:43:29;;;;;;;;;;;;;;;;;;4440046;32;19988;-82
2022/03/07 12:45:56;;;;;;;;;;;;;;;;;;4452747;32;19970;-82
2022/03/07 12:48:24;;;;;;;;;;;;;;;;;;4438669;32;20291;-83
2022/03/07 12:50:49;;;;;;;;;;;;;;;;;;4453431;32;19975;-83
2022/03/07 12:53:14;;;;;;;;;;;;;;;;;;4454313;32;20373;-84
2022/03/07 12:55:40;;;;;;;;;;;;;;;;;;4439269;32;20356;-82
2022/03/07 12:58:05;;;;;;;;;;;;;;;;;;4437769;32;19937;-81
2022/03/07 13:00:32;;;;;;;;;;;;;;;;;;4452274;32;19970;-80
2022/03/07 13:02:58;;;;;;;;;;;;;;;;;;4437166;32;19929;-82
2022/03/07 13:05:27;;;;;;;;;;;;;;;;;;4452342;32;19941;-83
2022/03/07 13:07:52;;;;;;;;;;;;;;;;;;4454236;32;19948;-82
2022/03/07 13:10:17;;;;;;;;;;;;;;;;;;4440451;32;20243;-83
2022/03/07 13:12:50;;;;;;;;;;;;;;;;;;4439909;32;20027;-84
2022/03/07 13:15:15;;;;;;;;;;;;;;;;;;4440709;32;20315;-84
2022/03/07 13:17:46;;;;;;;;;;;;;;;;;;4440024;32;19955;-85
2022/03/07 13:20:20;;;;;;;;;;;;;;;;;;4440231;32;19976;-84
2022/03/07 13:22:45;;;;;;;;;;;;;;;;;;4455253;32;19963;-85
2022/03/07 13:25:10;;;;;;;;;;;;;;;;;;4440554;32;19972;-86
2022/03/07 13:27:36;;;;;;;;;;;;;;;;;;4440022;32;19983;-86
2022/03/07 13:30:04;;;;;;;;;;;;;;;;;;4439893;32;19936;-86
2022/03/07 13:32:32;;;;;;;;;;;;;;;;;;4440075;32;19964;-83
2022/03/07 13:34:58;;;;;;;;;;;;;;;;;;4436578;32;19956;-84
2022/03/07 13:37:32;;;;;;;;;;;;;;;;;;4437819;32;19948;-85
2022/03/07 13:39:58;;;;;;;;;;;;;;;;;;4438079;32;19933;-85
2022/03/07 13:42:23;;;;;;;;;;;;;;;;;;4436855;32;20281;-85
2022/03/07 13:44:48;;;;;;;;;;;;;;;;;;4438468;32;19968;-81
2022/03/07 13:47:13;;;;;;;;;;;;;;;;;;4424181;32;20294;-85
2022/03/07 13:49:38;;;;;;;;;;;;;;;;;;4421367;32;19945;-85
2022/03/07 13:52:03;;;;;;;;;;;;;;;;;;4422619;32;19951;-82
2022/03/07 13:54:29;;;;;;;;;;;;;;;;;;4421174;32;19941;-87
2022/03/07 13:56:54;;;;;;;;;;;;;;;;;;4421283;32;19957;-85
2022/03/07 13:59:22;;;;;;;;;;;;;;;;;;4420908;32;20244;-85
2022/03/07 14:01:48;;;;;;;;;;;;;;;;;;4422392;32;19933;-86
2022/03/07 14:04:13;;;;;;;;;;;;;;;;;;4422469;32;19937;-84
2022/03/07 14:06:44;;;;;;;;;;;;;;;;;;4422113;32;20003;-84
2022/03/07 14:09:18;;;;;;;;;;;;;;;;;;4422255;32;20000;-85
2022/03/07 14:11:59;;;;;;;;;;;;;;;;;;4422733;32;19971;-84
2022/03/07 14:14:30;;;;;;;;;;;;;;;;;;4421528;32;19964;-85
2022/03/07 14:16:55;;;;;;;;;;;;;;;;;;4421526;32;19941;-85
2022/03/07 14:19:23;;;;;;;;;;;;;;;;;;4422371;32;20008;-85
2022/03/07 14:21:51;;;;;;;;;;;;;;;;;;4420833;32;20282;-84
2022/03/07 14:24:19;;;;;;;;;;;;;;;;;;4420799;32;20356;-85
2022/03/07 14:26:44;;;;;;;;;;;;;;;;;;4421782;32;19951;-84
2022/03/07 14:29:18;;;;;;;;;;;;;;;;;;4421488;32;19941;-85
2022/03/07 14:31:52;;;;;;;;;;;;;;;;;;4422049;32;19948;-85
2022/03/07 14:34:18;;;;;;;;;;;;;;;;;;4430033;32;19947;-82
2022/03/07 14:36:44;;;;;;;;;;;;;;;;;;4438727;32;19936;-81
2022/03/07 14:39:11;;;;;;;;;;;;;;;;;;4438386;32;19970;-83
2022/03/07 14:41:41;;;;;;;;;;;;;;;;;;4438187;32;19928;-84
2022/03/07 14:44:06;;;;;;;;;;;;;;;;;;4438041;32;20283;-84
2022/03/07 14:46:36;;;;;;;;;;;;;;;;;;4438005;32;19951;-84
2022/03/07 14:49:01;;;;;;;;;;;;;;;;;;4438269;32;19929;-84
2022/03/07 14:51:27;;;;;;;;;;;;;;;;;;4438102;32;19940;-83
2022/03/07 14:53:52;;;;;;;;;;;;;;;;;;4458385;32;19948;-83
2022/03/07 14:56:17;;;;;;;;;;;;;;;;;;4437773;32;20383;-82
2022/03/07 14:58:43;;;;;;;;;;;;;;;;;;4452259;32;19936;-82
2022/03/07 15:01:08;;;;;;;;;;;;;;;;;;4451934;32;19988;-80
2022/03/07 15:03:33;;;;;;;;;;;;;;;;;;4451982;32;20266;-81
2022/03/07 15:05:58;;;;;;;;;;;;;;;;;;4437882;32;19937;-81
2022/03/07 15:08:24;;;;;;;;;;;;;;;;;;4452480;32;19936;-82
2022/03/07 15:10:49;;;;;;;;;;;;;;;;;;4452247;32;19998;-81
2022/03/07 15:13:14;;;;;;;;;;;;;;;;;;4451936;32;20315;-84
2022/03/07 15:15:39;;;;;;;;;;;;;;;;;;4451988;32;19974;-80
2022/03/07 15:18:11;;;;;;;;;;;;;;;;;;4451991;32;19992;-83
2022/03/07 15:20:47;;;;;;;;;;;;;;;;;;4437731;32;20295;-84
2022/03/07 15:23:17;;;;;;;;;;;;;;;;;;4437604;32;19982;-82
2022/03/07 15:25:47;;;;;;;;;;;;;;;;;;4451197;32;19948;-84
2022/03/07 15:28:20;;;;;;;;;;;;;;;;;;4451751;32;19959;-83
2022/03/07 15:30:45;;;;;;;;;;;;;;;;;;4437508;32;19943;-84
2022/03/07 15:33:10;;;;;;;;;;;;;;;;;;4437248;32;19936;-83
2022/03/07 15:35:35;;;;;;;;;;;;;;;;;;4437083;32;20335;-83
2022/03/07 15:38:01;;;;;;;;;;;;;;;;;;4437626;32;19933;-83
2022/03/07 15:40:26;;;;;;;;;;;;;;;;;;4438429;32;19940;-82
2022/03/07 15:42:51;;;;;;;;;;;;;;;;;;4450705;32;19976;-82
2022/03/07 15:45:16;;;;;;;;;;;;;;;;;;4451374;32;19970;-83
2022/03/07 15:47:42;;;;;;;;;;;;;;;;;;4451845;32;19941;-83
2022/03/07 15:50:07;;;;;;;;;;;;;;;;;;4449804;32;19989;-83
2022/03/07 15:52:36;;;;;;;;;;;;;;;;;;4450408;32;19951;-85
2022/03/07 15:55:01;;;;;;;;;;;;;;;;;;4449942;32;20276;-85
2022/03/07 15:57:33;;;;;;;;;;;;;;;;;;4450005;32;19943;-83
2022/03/07 15:59:59;;;;;;;;;;;;;;;;;;4450296;32;20261;-85
2022/03/07 16:02:24;;;;;;;;;;;;;;;;;;4451154;32;19937;-85
2022/03/07 16:04:53;;;;;;;;;;;;;;;;;;4451273;32;19982;-83
2022/03/07 16:07:19;;;;;;;;;;;;;;;;;;4450984;32;19946;-84
2022/03/07 16:09:48;;;;;;;;;;;;;;;;;;4449992;32;19964;-84
2022/03/07 16:12:14;;;;;;;;;;;;;;;;;;4451142;32;19973;-83
2022/03/07 16:14:42;;;;;;;;;;;;;;;;;;4450802;32;19975;-83
2022/03/07 16:17:07;;;;;;;;;;;;;;;;;;4449206;32;19928;-84